sensor_id;sensor_type;location;lat;lon;timestamp;P1;durP1;ratioP1;P2;durP2;ratioP2
79755;SDS011;69239;50.678;12.280;2024-01-15T00:01:07;13.82;;;6.22;;
79755;SDS011;69239;50.678;12.280;2024-01-15T00:03:32;15.38;;;6.97;;
79755;SDS011;69239;50.678;12.280;2024-01-15T00:05:57;17.77;;;6.25;;
79755;SDS011;69239;50.678;12.280;2024-01-15T00:08:23;11.40;;;4.87;;
79755;SDS011;69239;50.678;12.280;2024-01-15T00:10:48;18.70;;;7.00;;
79755;SDS011;69239;50.678;12.280;2024-01-15T00:13:13;15.60;;;5.55;;
79755;SDS011;69239;50.678;12.280;2024-01-15T00:15:39;15.02;;;5.95;;
79755;SDS011;69239;50.678;12.280;2024-01-15T00:18:04;13.05;;;6.35;;
79755;SDS011;69239;50.678;12.280;2024-01-15T00:20:30;15.55;;;5.78;;
79755;SDS011;69239;50.678;12.280;2024-01-15T00:22:55;14.10;;;5.47;;
79755;SDS011;69239;50.678;12.280;2024-01-15T00:25:21;10.47;;;5.37;;
79755;SDS011;69239;50.678;12.280;2024-01-15T00:27:46;16.30;;;5.87;;
79755;SDS011;69239;50.678;12.280;2024-01-15T00:30:11;14.98;;;5.88;;
79755;SDS011;69239;50.678;12.280;2024-01-15T00:32:37;19.13;;;6.07;;
79755;SDS011;69239;50.678;12.280;2024-01-15T00:35:03;14.47;;;6.10;;
79755;SDS011;69239;50.678;12.280;2024-01-15T00:37:28;15.10;;;6.25;;
79755;SDS011;69239;50.678;12.280;2024-01-15T00:39:55;17.73;;;6.90;;
79755;SDS011;69239;50.678;12.280;2024-01-15T00:42:20;19.40;;;7.00;;
79755;SDS011;69239;50.678;12.280;2024-01-15T00:44:45;10.93;;;4.83;;
79755;SDS011;69239;50.678;12.280;2024-01-15T00:47:11;10.93;;;4.90;;
79755;SDS011;69239;50.678;12.280;2024-01-15T00:49:36;15.43;;;7.27;;
79755;SDS011;69239;50.678;12.280;2024-01-15T00:52:01;15.18;;;5.00;;
79755;SDS011;69239;50.678;12.280;2024-01-15T00:54:27;15.93;;;7.03;;
79755;SDS011;69239;50.678;12.280;2024-01-15T00:56:52;14.17;;;5.57;;
79755;SDS011;69239;50.678;12.280;2024-01-15T00:59:17;16.37;;;5.60;;
79755;SDS011;69239;50.678;12.280;2024-01-15T01:01:43;10.80;;;4.93;;
79755;SDS011;69239;50.678;12.280;2024-01-15T01:04:09;18.52;;;7.20;;
79755;SDS011;69239;50.678;12.280;2024-01-15T01:06:35;18.13;;;7.32;;
79755;SDS011;69239;50.678;12.280;2024-01-15T01:09:00;16.75;;;6.80;;
79755;SDS011;69239;50.678;12.280;2024-01-15T01:11:25;20.23;;;7.70;;
79755;SDS011;69239;50.678;12.280;2024-01-15T01:13:51;17.23;;;7.37;;
79755;SDS011;69239;50.678;12.280;2024-01-15T01:16:16;18.33;;;8.57;;
79755;SDS011;69239;50.678;12.280;2024-01-15T01:18:42;18.25;;;7.40;;
79755;SDS011;69239;50.678;12.280;2024-01-15T01:21:07;17.73;;;6.97;;
79755;SDS011;69239;50.678;12.280;2024-01-15T01:23:32;18.83;;;7.70;;
79755;SDS011;69239;50.678;12.280;2024-01-15T01:25:58;25.00;;;7.43;;
79755;SDS011;69239;50.678;12.280;2024-01-15T01:28:23;17.30;;;7.13;;
79755;SDS011;69239;50.678;12.280;2024-01-15T01:30:49;20.75;;;7.70;;
79755;SDS011;69239;50.678;12.280;2024-01-15T01:33:14;21.10;;;8.60;;
79755;SDS011;69239;50.678;12.280;2024-01-15T01:35:39;20.50;;;9.87;;
79755;SDS011;69239;50.678;12.280;2024-01-15T01:38:05;21.75;;;8.25;;
79755;SDS011;69239;50.678;12.280;2024-01-15T01:40:30;14.57;;;6.47;;
79755;SDS011;69239;50.678;12.280;2024-01-15T01:42:55;15.52;;;5.70;;
79755;SDS011;69239;50.678;12.280;2024-01-15T01:45:21;18.92;;;7.18;;
79755;SDS011;69239;50.678;12.280;2024-01-15T01:47:46;22.87;;;8.10;;
79755;SDS011;69239;50.678;12.280;2024-01-15T01:50:12;21.02;;;7.35;;
79755;SDS011;69239;50.678;12.280;2024-01-15T01:52:39;19.65;;;8.45;;
79755;SDS011;69239;50.678;12.280;2024-01-15T01:55:05;11.00;;;5.97;;
79755;SDS011;69239;50.678;12.280;2024-01-15T01:57:31;19.10;;;7.80;;
79755;SDS011;69239;50.678;12.280;2024-01-15T01:59:59;16.73;;;6.45;;
79755;SDS011;69239;50.678;12.280;2024-01-15T02:02:26;17.40;;;7.63;;
79755;SDS011;69239;50.678;12.280;2024-01-15T02:04:51;15.68;;;7.88;;
79755;SDS011;69239;50.678;12.280;2024-01-15T02:07:17;23.42;;;8.07;;
79755;SDS011;69239;50.678;12.280;2024-01-15T02:09:43;19.50;;;7.72;;
79755;SDS011;69239;50.678;12.280;2024-01-15T02:12:09;20.80;;;8.40;;
79755;SDS011;69239;50.678;12.280;2024-01-15T02:14:35;19.60;;;7.68;;
79755;SDS011;69239;50.678;12.280;2024-01-15T02:17:01;16.95;;;7.53;;
79755;SDS011;69239;50.678;12.280;2024-01-15T02:19:26;16.83;;;6.88;;
79755;SDS011;69239;50.678;12.280;2024-01-15T02:21:51;22.23;;;9.13;;
79755;SDS011;69239;50.678;12.280;2024-01-15T02:24:17;18.13;;;7.53;;
79755;SDS011;69239;50.678;12.280;2024-01-15T02:26:42;19.75;;;6.88;;
79755;SDS011;69239;50.678;12.280;2024-01-15T02:29:08;20.20;;;6.28;;
79755;SDS011;69239;50.678;12.280;2024-01-15T02:31:34;19.35;;;7.30;;
79755;SDS011;69239;50.678;12.280;2024-01-15T02:34:00;15.98;;;6.00;;
79755;SDS011;69239;50.678;12.280;2024-01-15T02:36:26;21.30;;;8.68;;
79755;SDS011;69239;50.678;12.280;2024-01-15T02:38:51;17.37;;;7.50;;
79755;SDS011;69239;50.678;12.280;2024-01-15T02:41:16;22.10;;;8.63;;
79755;SDS011;69239;50.678;12.280;2024-01-15T02:43:42;16.13;;;6.63;;
79755;SDS011;69239;50.678;12.280;2024-01-15T02:46:07;17.75;;;7.47;;
79755;SDS011;69239;50.678;12.280;2024-01-15T02:48:32;12.07;;;5.20;;
79755;SDS011;69239;50.678;12.280;2024-01-15T02:50:59;16.13;;;7.15;;
79755;SDS011;69239;50.678;12.280;2024-01-15T02:53:25;13.20;;;6.50;;
79755;SDS011;69239;50.678;12.280;2024-01-15T02:55:51;10.00;;;4.07;;
79755;SDS011;69239;50.678;12.280;2024-01-15T02:58:16;15.30;;;6.77;;
79755;SDS011;69239;50.678;12.280;2024-01-15T03:00:41;13.87;;;5.53;;
79755;SDS011;69239;50.678;12.280;2024-01-15T03:03:07;21.50;;;7.85;;
79755;SDS011;69239;50.678;12.280;2024-01-15T03:05:33;15.32;;;6.28;;
79755;SDS011;69239;50.678;12.280;2024-01-15T03:07:58;21.38;;;7.72;;
79755;SDS011;69239;50.678;12.280;2024-01-15T03:10:23;19.58;;;8.00;;
79755;SDS011;69239;50.678;12.280;2024-01-15T03:12:49;18.83;;;7.70;;
79755;SDS011;69239;50.678;12.280;2024-01-15T03:15:14;12.03;;;5.23;;
79755;SDS011;69239;50.678;12.280;2024-01-15T03:17:41;16.77;;;6.00;;
79755;SDS011;69239;50.678;12.280;2024-01-15T03:20:07;21.75;;;8.02;;
79755;SDS011;69239;50.678;12.280;2024-01-15T03:22:33;15.77;;;5.97;;
79755;SDS011;69239;50.678;12.280;2024-01-15T03:24:58;18.97;;;7.90;;
79755;SDS011;69239;50.678;12.280;2024-01-15T03:27:24;19.95;;;7.57;;
79755;SDS011;69239;50.678;12.280;2024-01-15T03:29:50;17.58;;;7.20;;
79755;SDS011;69239;50.678;12.280;2024-01-15T03:32:16;17.88;;;7.32;;
79755;SDS011;69239;50.678;12.280;2024-01-15T03:37:07;15.40;;;5.90;;
79755;SDS011;69239;50.678;12.280;2024-01-15T03:39:32;16.63;;;7.60;;
79755;SDS011;69239;50.678;12.280;2024-01-15T03:41:57;12.07;;;6.10;;
79755;SDS011;69239;50.678;12.280;2024-01-15T03:44:23;22.13;;;9.15;;
79755;SDS011;69239;50.678;12.280;2024-01-15T03:46:48;17.63;;;6.78;;
79755;SDS011;69239;50.678;12.280;2024-01-15T03:49:13;20.70;;;8.20;;
79755;SDS011;69239;50.678;12.280;2024-01-15T03:51:39;17.07;;;6.77;;
79755;SDS011;69239;50.678;12.280;2024-01-15T03:54:04;15.83;;;6.53;;
79755;SDS011;69239;50.678;12.280;2024-01-15T03:56:29;15.32;;;6.78;;
79755;SDS011;69239;50.678;12.280;2024-01-15T03:58:55;18.77;;;7.23;;
79755;SDS011;69239;50.678;12.280;2024-01-15T04:01:20;12.77;;;5.23;;
79755;SDS011;69239;50.678;12.280;2024-01-15T04:03:46;14.85;;;5.63;;
79755;SDS011;69239;50.678;12.280;2024-01-15T04:06:11;14.55;;;5.93;;
79755;SDS011;69239;50.678;12.280;2024-01-15T04:08:36;16.53;;;6.37;;
79755;SDS011;69239;50.678;12.280;2024-01-15T04:11:02;21.10;;;8.67;;
79755;SDS011;69239;50.678;12.280;2024-01-15T04:13:27;14.90;;;6.65;;
79755;SDS011;69239;50.678;12.280;2024-01-15T04:15:52;18.75;;;6.72;;
79755;SDS011;69239;50.678;12.280;2024-01-15T04:18:18;22.17;;;8.70;;
79755;SDS011;69239;50.678;12.280;2024-01-15T04:20:43;21.65;;;7.47;;
79755;SDS011;69239;50.678;12.280;2024-01-15T04:23:09;11.43;;;4.80;;
79755;SDS011;69239;50.678;12.280;2024-01-15T04:25:34;19.50;;;7.32;;
79755;SDS011;69239;50.678;12.280;2024-01-15T04:28:00;15.30;;;7.45;;
79755;SDS011;69239;50.678;12.280;2024-01-15T04:30:25;17.17;;;7.07;;
79755;SDS011;69239;50.678;12.280;2024-01-15T04:32:51;16.70;;;5.80;;
79755;SDS011;69239;50.678;12.280;2024-01-15T04:35:16;12.57;;;5.70;;
79755;SDS011;69239;50.678;12.280;2024-01-15T04:37:41;13.38;;;5.40;;
79755;SDS011;69239;50.678;12.280;2024-01-15T04:40:07;14.82;;;6.97;;
79755;SDS011;69239;50.678;12.280;2024-01-15T04:42:33;10.50;;;4.55;;
79755;SDS011;69239;50.678;12.280;2024-01-15T04:44:58;15.35;;;5.65;;
79755;SDS011;69239;50.678;12.280;2024-01-15T04:47:24;9.85;;;4.25;;
79755;SDS011;69239;50.678;12.280;2024-01-15T04:49:49;14.35;;;5.32;;
79755;SDS011;69239;50.678;12.280;2024-01-15T04:52:15;16.83;;;5.80;;
79755;SDS011;69239;50.678;12.280;2024-01-15T04:54:40;13.43;;;5.00;;
79755;SDS011;69239;50.678;12.280;2024-01-15T04:57:06;10.20;;;4.40;;
79755;SDS011;69239;50.678;12.280;2024-01-15T04:59:31;10.35;;;4.75;;
79755;SDS011;69239;50.678;12.280;2024-01-15T05:01:57;11.43;;;5.03;;
79755;SDS011;69239;50.678;12.280;2024-01-15T05:04:22;12.95;;;4.50;;
79755;SDS011;69239;50.678;12.280;2024-01-15T05:06:49;13.02;;;4.40;;
79755;SDS011;69239;50.678;12.280;2024-01-15T05:09:15;12.82;;;5.53;;
79755;SDS011;69239;50.678;12.280;2024-01-15T05:11:40;10.85;;;4.50;;
79755;SDS011;69239;50.678;12.280;2024-01-15T05:14:06;11.80;;;6.40;;
79755;SDS011;69239;50.678;12.280;2024-01-15T05:16:31;12.90;;;6.33;;
79755;SDS011;69239;50.678;12.280;2024-01-15T05:18:56;13.90;;;6.20;;
79755;SDS011;69239;50.678;12.280;2024-01-15T05:21:22;11.53;;;4.67;;
79755;SDS011;69239;50.678;12.280;2024-01-15T05:23:47;14.93;;;5.57;;
79755;SDS011;69239;50.678;12.280;2024-01-15T05:26:13;11.70;;;4.57;;
79755;SDS011;69239;50.678;12.280;2024-01-15T05:28:38;15.93;;;5.47;;
79755;SDS011;69239;50.678;12.280;2024-01-15T05:31:06;16.83;;;6.38;;
79755;SDS011;69239;50.678;12.280;2024-01-15T05:33:31;14.52;;;5.82;;
79755;SDS011;69239;50.678;12.280;2024-01-15T05:35:57;13.10;;;5.57;;
79755;SDS011;69239;50.678;12.280;2024-01-15T05:38:23;14.63;;;6.00;;
79755;SDS011;69239;50.678;12.280;2024-01-15T05:40:49;11.02;;;4.80;;
79755;SDS011;69239;50.678;12.280;2024-01-15T05:43:14;13.52;;;5.35;;
79755;SDS011;69239;50.678;12.280;2024-01-15T05:45:42;17.48;;;5.90;;
79755;SDS011;69239;50.678;12.280;2024-01-15T05:48:08;16.15;;;6.30;;
79755;SDS011;69239;50.678;12.280;2024-01-15T05:50:33;13.10;;;5.73;;
79755;SDS011;69239;50.678;12.280;2024-01-15T05:52:59;10.00;;;4.78;;
79755;SDS011;69239;50.678;12.280;2024-01-15T05:55:24;13.65;;;5.78;;
79755;SDS011;69239;50.678;12.280;2024-01-15T05:57:49;17.05;;;7.25;;
79755;SDS011;69239;50.678;12.280;2024-01-15T06:00:17;13.73;;;6.63;;
79755;SDS011;69239;50.678;12.280;2024-01-15T06:02:43;11.65;;;5.25;;
79755;SDS011;69239;50.678;12.280;2024-01-15T06:05:09;13.32;;;5.38;;
79755;SDS011;69239;50.678;12.280;2024-01-15T06:07:34;21.40;;;6.28;;
79755;SDS011;69239;50.678;12.280;2024-01-15T06:10:01;12.55;;;5.55;;
79755;SDS011;69239;50.678;12.280;2024-01-15T06:12:27;16.50;;;6.55;;
79755;SDS011;69239;50.678;12.280;2024-01-15T06:14:56;11.40;;;4.95;;
79755;SDS011;69239;50.678;12.280;2024-01-15T06:17:22;11.20;;;5.88;;
79755;SDS011;69239;50.678;12.280;2024-01-15T06:22:13;10.53;;;4.63;;
79755;SDS011;69239;50.678;12.280;2024-01-15T06:24:39;11.15;;;6.13;;
79755;SDS011;69239;50.678;12.280;2024-01-15T06:27:04;15.02;;;6.57;;
79755;SDS011;69239;50.678;12.280;2024-01-15T06:29:30;15.32;;;6.55;;
79755;SDS011;69239;50.678;12.280;2024-01-15T06:31:55;16.67;;;7.05;;
79755;SDS011;69239;50.678;12.280;2024-01-15T06:36:48;15.13;;;5.30;;
79755;SDS011;69239;50.678;12.280;2024-01-15T06:39:14;17.10;;;6.32;;
79755;SDS011;69239;50.678;12.280;2024-01-15T06:41:39;10.32;;;4.75;;
79755;SDS011;69239;50.678;12.280;2024-01-15T06:44:11;12.50;;;5.80;;
79755;SDS011;69239;50.678;12.280;2024-01-15T06:46:44;12.85;;;5.18;;
79755;SDS011;69239;50.678;12.280;2024-01-15T06:49:10;12.02;;;4.90;;
79755;SDS011;69239;50.678;12.280;2024-01-15T06:51:36;12.43;;;5.20;;
79755;SDS011;69239;50.678;12.280;2024-01-15T06:54:02;12.95;;;5.90;;
79755;SDS011;69239;50.678;12.280;2024-01-15T06:56:28;13.23;;;5.00;;
79755;SDS011;69239;50.678;12.280;2024-01-15T06:58:53;14.33;;;5.50;;
79755;SDS011;69239;50.678;12.280;2024-01-15T07:01:18;10.25;;;4.68;;
79755;SDS011;69239;50.678;12.280;2024-01-15T07:03:44;17.00;;;6.75;;
79755;SDS011;69239;50.678;12.280;2024-01-15T07:06:10;14.70;;;6.00;;
79755;SDS011;69239;50.678;12.280;2024-01-15T07:08:35;12.60;;;5.35;;
79755;SDS011;69239;50.678;12.280;2024-01-15T07:11:03;12.25;;;4.75;;
79755;SDS011;69239;50.678;12.280;2024-01-15T07:13:29;10.02;;;5.43;;
79755;SDS011;69239;50.678;12.280;2024-01-15T07:15:55;11.93;;;5.03;;
79755;SDS011;69239;50.678;12.280;2024-01-15T07:18:20;14.48;;;4.20;;
79755;SDS011;69239;50.678;12.280;2024-01-15T07:20:45;9.90;;;4.40;;
79755;SDS011;69239;50.678;12.280;2024-01-15T07:23:11;10.47;;;5.17;;
79755;SDS011;69239;50.678;12.280;2024-01-15T07:25:37;10.40;;;4.55;;
79755;SDS011;69239;50.678;12.280;2024-01-15T07:28:02;16.13;;;5.85;;
79755;SDS011;69239;50.678;12.280;2024-01-15T07:30:28;11.40;;;4.55;;
79755;SDS011;69239;50.678;12.280;2024-01-15T07:32:56;11.50;;;4.45;;
79755;SDS011;69239;50.678;12.280;2024-01-15T07:35:29;9.90;;;4.55;;
79755;SDS011;69239;50.678;12.280;2024-01-15T07:38:01;9.15;;;3.85;;
79755;SDS011;69239;50.678;12.280;2024-01-15T07:40:29;14.50;;;5.22;;
79755;SDS011;69239;50.678;12.280;2024-01-15T07:42:54;14.27;;;5.72;;
79755;SDS011;69239;50.678;12.280;2024-01-15T07:45:23;12.18;;;5.07;;
79755;SDS011;69239;50.678;12.280;2024-01-15T07:47:49;15.10;;;5.47;;
79755;SDS011;69239;50.678;12.280;2024-01-15T07:50:15;11.88;;;4.60;;
79755;SDS011;69239;50.678;12.280;2024-01-15T07:52:40;15.20;;;5.45;;
79755;SDS011;69239;50.678;12.280;2024-01-15T07:55:09;13.25;;;5.40;;
79755;SDS011;69239;50.678;12.280;2024-01-15T07:57:34;13.88;;;6.45;;
79755;SDS011;69239;50.678;12.280;2024-01-15T08:00:01;12.10;;;5.15;;
79755;SDS011;69239;50.678;12.280;2024-01-15T08:02:29;10.85;;;3.78;;
79755;SDS011;69239;50.678;12.280;2024-01-15T08:04:54;13.57;;;5.53;;
79755;SDS011;69239;50.678;12.280;2024-01-15T08:07:19;10.60;;;5.07;;
79755;SDS011;69239;50.678;12.280;2024-01-15T08:09:45;8.75;;;3.97;;
79755;SDS011;69239;50.678;12.280;2024-01-15T08:12:12;13.23;;;6.03;;
79755;SDS011;69239;50.678;12.280;2024-01-15T08:14:38;10.25;;;3.95;;
79755;SDS011;69239;50.678;12.280;2024-01-15T08:17:03;10.65;;;3.85;;
79755;SDS011;69239;50.678;12.280;2024-01-15T08:19:29;11.55;;;4.45;;
79755;SDS011;69239;50.678;12.280;2024-01-15T08:21:54;12.02;;;4.20;;
79755;SDS011;69239;50.678;12.280;2024-01-15T08:24:20;8.55;;;4.47;;
79755;SDS011;69239;50.678;12.280;2024-01-15T08:26:45;9.77;;;4.55;;
79755;SDS011;69239;50.678;12.280;2024-01-15T08:29:11;9.15;;;4.43;;
79755;SDS011;69239;50.678;12.280;2024-01-15T08:31:36;11.88;;;4.63;;
79755;SDS011;69239;50.678;12.280;2024-01-15T08:34:02;9.15;;;4.10;;
79755;SDS011;69239;50.678;12.280;2024-01-15T08:36:27;9.50;;;4.53;;
79755;SDS011;69239;50.678;12.280;2024-01-15T08:38:55;10.60;;;4.70;;
79755;SDS011;69239;50.678;12.280;2024-01-15T08:41:21;9.95;;;4.32;;
79755;SDS011;69239;50.678;12.280;2024-01-15T08:43:46;8.50;;;3.55;;
79755;SDS011;69239;50.678;12.280;2024-01-15T08:46:13;8.48;;;3.85;;
79755;SDS011;69239;50.678;12.280;2024-01-15T08:48:38;9.13;;;4.07;;
79755;SDS011;69239;50.678;12.280;2024-01-15T08:51:04;7.90;;;3.95;;
79755;SDS011;69239;50.678;12.280;2024-01-15T08:53:30;12.82;;;4.53;;
79755;SDS011;69239;50.678;12.280;2024-01-15T08:55:55;12.50;;;4.55;;
79755;SDS011;69239;50.678;12.280;2024-01-15T08:58:21;12.63;;;4.35;;
79755;SDS011;69239;50.678;12.280;2024-01-15T09:00:48;11.82;;;4.70;;
79755;SDS011;69239;50.678;12.280;2024-01-15T09:03:13;7.40;;;3.60;;
79755;SDS011;69239;50.678;12.280;2024-01-15T09:05:38;5.83;;;3.37;;
79755;SDS011;69239;50.678;12.280;2024-01-15T09:08:05;7.13;;;3.25;;
79755;SDS011;69239;50.678;12.280;2024-01-15T09:10:31;11.57;;;3.85;;
79755;SDS011;69239;50.678;12.280;2024-01-15T09:12:56;7.97;;;4.03;;
79755;SDS011;69239;50.678;12.280;2024-01-15T09:15:22;9.38;;;4.05;;
79755;SDS011;69239;50.678;12.280;2024-01-15T09:17:48;8.18;;;4.47;;
79755;SDS011;69239;50.678;12.280;2024-01-15T09:20:13;7.43;;;3.63;;
79755;SDS011;69239;50.678;12.280;2024-01-15T09:22:39;10.18;;;4.05;;
79755;SDS011;69239;50.678;12.280;2024-01-15T09:25:10;11.02;;;4.75;;
79755;SDS011;69239;50.678;12.280;2024-01-15T09:27:36;9.75;;;4.95;;
79755;SDS011;69239;50.678;12.280;2024-01-15T09:30:02;11.98;;;5.43;;
79755;SDS011;69239;50.678;12.280;2024-01-15T09:32:28;10.40;;;4.53;;
79755;SDS011;69239;50.678;12.280;2024-01-15T09:34:53;7.40;;;4.00;;
79755;SDS011;69239;50.678;12.280;2024-01-15T09:37:18;8.57;;;4.40;;
79755;SDS011;69239;50.678;12.280;2024-01-15T09:39:44;9.95;;;3.97;;
79755;SDS011;69239;50.678;12.280;2024-01-15T09:42:09;6.47;;;2.80;;
79755;SDS011;69239;50.678;12.280;2024-01-15T09:44:35;7.63;;;3.20;;
79755;SDS011;69239;50.678;12.280;2024-01-15T09:47:01;7.45;;;3.05;;
79755;SDS011;69239;50.678;12.280;2024-01-15T09:49:29;9.00;;;3.50;;
79755;SDS011;69239;50.678;12.280;2024-01-15T09:51:55;9.40;;;3.35;;
79755;SDS011;69239;50.678;12.280;2024-01-15T09:54:21;9.15;;;3.95;;
79755;SDS011;69239;50.678;12.280;2024-01-15T09:56:47;5.93;;;3.45;;
79755;SDS011;69239;50.678;12.280;2024-01-15T09:59:16;8.45;;;3.55;;
79755;SDS011;69239;50.678;12.280;2024-01-15T10:01:44;8.38;;;4.30;;
79755;SDS011;69239;50.678;12.280;2024-01-15T10:04:13;6.55;;;2.85;;
79755;SDS011;69239;50.678;12.280;2024-01-15T10:06:39;7.80;;;3.72;;
79755;SDS011;69239;50.678;12.280;2024-01-15T10:09:08;6.30;;;3.13;;
79755;SDS011;69239;50.678;12.280;2024-01-15T10:11:34;8.90;;;3.30;;
79755;SDS011;69239;50.678;12.280;2024-01-15T10:14:00;8.55;;;4.22;;
79755;SDS011;69239;50.678;12.280;2024-01-15T10:16:26;6.90;;;3.28;;
79755;SDS011;69239;50.678;12.280;2024-01-15T10:18:51;8.93;;;4.40;;
79755;SDS011;69239;50.678;12.280;2024-01-15T10:21:17;8.68;;;4.03;;
79755;SDS011;69239;50.678;12.280;2024-01-15T10:23:42;10.48;;;4.03;;
79755;SDS011;69239;50.678;12.280;2024-01-15T10:26:08;7.05;;;3.38;;
79755;SDS011;69239;50.678;12.280;2024-01-15T10:28:34;9.10;;;4.13;;
79755;SDS011;69239;50.678;12.280;2024-01-15T10:31:00;8.57;;;4.38;;
79755;SDS011;69239;50.678;12.280;2024-01-15T10:33:26;8.57;;;4.45;;
79755;SDS011;69239;50.678;12.280;2024-01-15T10:35:55;7.38;;;3.47;;
79755;SDS011;69239;50.678;12.280;2024-01-15T10:38:21;7.00;;;3.72;;
79755;SDS011;69239;50.678;12.280;2024-01-15T10:40:56;6.93;;;3.30;;
79755;SDS011;69239;50.678;12.280;2024-01-15T10:43:22;9.00;;;3.63;;
79755;SDS011;69239;50.678;12.280;2024-01-15T10:45:49;7.78;;;3.45;;
79755;SDS011;69239;50.678;12.280;2024-01-15T10:48:18;6.60;;;3.38;;
79755;SDS011;69239;50.678;12.280;2024-01-15T10:50:47;7.45;;;3.75;;
79755;SDS011;69239;50.678;12.280;2024-01-15T10:53:15;8.77;;;4.07;;
79755;SDS011;69239;50.678;12.280;2024-01-15T10:55:42;9.35;;;3.78;;
79755;SDS011;69239;50.678;12.280;2024-01-15T10:58:08;9.35;;;3.90;;
79755;SDS011;69239;50.678;12.280;2024-01-15T11:00:35;8.63;;;4.10;;
79755;SDS011;69239;50.678;12.280;2024-01-15T11:03:07;9.43;;;3.22;;
79755;SDS011;69239;50.678;12.280;2024-01-15T11:05:40;8.20;;;3.85;;
79755;SDS011;69239;50.678;12.280;2024-01-15T11:08:07;6.55;;;3.33;;
79755;SDS011;69239;50.678;12.280;2024-01-15T11:13:07;7.43;;;3.20;;
79755;SDS011;69239;50.678;12.280;2024-01-15T11:15:54;9.40;;;3.20;;
79755;SDS011;69239;50.678;12.280;2024-01-15T11:18:30;4.95;;;3.00;;
79755;SDS011;69239;50.678;12.280;2024-01-15T11:23:48;5.90;;;2.88;;
79755;SDS011;69239;50.678;12.280;2024-01-15T11:28:55;7.15;;;3.33;;
79755;SDS011;69239;50.678;12.280;2024-01-15T11:34:02;4.55;;;2.38;;
79755;SDS011;69239;50.678;12.280;2024-01-15T11:41:51;4.97;;;2.85;;
79755;SDS011;69239;50.678;12.280;2024-01-15T11:44:17;7.68;;;2.95;;
79755;SDS011;69239;50.678;12.280;2024-01-15T11:46:43;7.53;;;3.45;;
79755;SDS011;69239;50.678;12.280;2024-01-15T11:52:22;6.57;;;2.70;;
79755;SDS011;69239;50.678;12.280;2024-01-15T11:57:21;7.40;;;3.80;;
79755;SDS011;69239;50.678;12.280;2024-01-15T12:00:07;4.07;;;2.63;;
79755;SDS011;69239;50.678;12.280;2024-01-15T12:02:34;8.93;;;4.13;;
79755;SDS011;69239;50.678;12.280;2024-01-15T12:04:59;8.18;;;3.45;;
79755;SDS011;69239;50.678;12.280;2024-01-15T12:07:25;8.32;;;3.17;;
79755;SDS011;69239;50.678;12.280;2024-01-15T12:09:50;4.40;;;2.40;;
79755;SDS011;69239;50.678;12.280;2024-01-15T12:12:58;8.93;;;3.20;;
79755;SDS011;69239;50.678;12.280;2024-01-15T12:15:19;7.15;;;3.15;;
79755;SDS011;69239;50.678;12.280;2024-01-15T12:17:45;7.97;;;2.45;;
79755;SDS011;69239;50.678;12.280;2024-01-15T12:20:12;6.72;;;3.20;;
79755;SDS011;69239;50.678;12.280;2024-01-15T12:22:38;8.30;;;3.13;;
79755;SDS011;69239;50.678;12.280;2024-01-15T12:25:04;7.47;;;2.97;;
79755;SDS011;69239;50.678;12.280;2024-01-15T12:27:29;7.68;;;2.90;;
79755;SDS011;69239;50.678;12.280;2024-01-15T12:29:55;5.93;;;2.33;;
79755;SDS011;69239;50.678;12.280;2024-01-15T12:32:20;8.20;;;3.00;;
79755;SDS011;69239;50.678;12.280;2024-01-15T12:34:48;6.80;;;3.00;;
79755;SDS011;69239;50.678;12.280;2024-01-15T12:37:14;5.93;;;2.80;;
79755;SDS011;69239;50.678;12.280;2024-01-15T12:39:42;6.53;;;2.72;;
79755;SDS011;69239;50.678;12.280;2024-01-15T12:42:09;6.32;;;3.00;;
79755;SDS011;69239;50.678;12.280;2024-01-15T12:44:35;7.57;;;3.10;;
79755;SDS011;69239;50.678;12.280;2024-01-15T12:47:03;7.55;;;2.92;;
79755;SDS011;69239;50.678;12.280;2024-01-15T12:49:31;7.70;;;2.97;;
79755;SDS011;69239;50.678;12.280;2024-01-15T12:51:57;6.07;;;2.83;;
79755;SDS011;69239;50.678;12.280;2024-01-15T12:54:23;8.00;;;3.35;;
79755;SDS011;69239;50.678;12.280;2024-01-15T12:56:49;7.53;;;3.13;;
79755;SDS011;69239;50.678;12.280;2024-01-15T12:59:14;5.30;;;2.20;;
79755;SDS011;69239;50.678;12.280;2024-01-15T13:01:40;7.00;;;2.63;;
79755;SDS011;69239;50.678;12.280;2024-01-15T13:04:06;5.25;;;2.67;;
79755;SDS011;69239;50.678;12.280;2024-01-15T13:06:34;6.32;;;2.83;;
79755;SDS011;69239;50.678;12.280;2024-01-15T13:09:02;5.35;;;3.03;;
79755;SDS011;69239;50.678;12.280;2024-01-15T13:11:31;8.20;;;3.55;;
79755;SDS011;69239;50.678;12.280;2024-01-15T13:13:57;7.03;;;3.05;;
79755;SDS011;69239;50.678;12.280;2024-01-15T13:16:23;8.57;;;3.40;;
79755;SDS011;69239;50.678;12.280;2024-01-15T13:18:48;8.48;;;4.10;;
79755;SDS011;69239;50.678;12.280;2024-01-15T13:21:14;4.40;;;2.25;;
79755;SDS011;69239;50.678;12.280;2024-01-15T13:23:40;6.63;;;3.05;;
79755;SDS011;69239;50.678;12.280;2024-01-15T13:26:06;7.45;;;3.10;;
79755;SDS011;69239;50.678;12.280;2024-01-15T13:28:32;6.60;;;2.75;;
79755;SDS011;69239;50.678;12.280;2024-01-15T13:30:57;7.72;;;3.05;;
79755;SDS011;69239;50.678;12.280;2024-01-15T13:33:23;8.75;;;4.00;;
79755;SDS011;69239;50.678;12.280;2024-01-15T13:35:48;7.93;;;3.67;;
79755;SDS011;69239;50.678;12.280;2024-01-15T13:38:16;7.35;;;3.42;;
79755;SDS011;69239;50.678;12.280;2024-01-15T13:40:42;7.70;;;3.13;;
79755;SDS011;69239;50.678;12.280;2024-01-15T13:43:10;7.60;;;4.07;;
79755;SDS011;69239;50.678;12.280;2024-01-15T13:45:35;8.32;;;4.00;;
79755;SDS011;69239;50.678;12.280;2024-01-15T13:48:02;8.25;;;3.40;;
79755;SDS011;69239;50.678;12.280;2024-01-15T13:50:33;9.15;;;3.92;;
79755;SDS011;69239;50.678;12.280;2024-01-15T13:52:59;5.07;;;3.20;;
79755;SDS011;69239;50.678;12.280;2024-01-15T13:55:24;7.78;;;4.18;;
79755;SDS011;69239;50.678;12.280;2024-01-15T13:57:49;7.10;;;3.63;;
79755;SDS011;69239;50.678;12.280;2024-01-15T14:00:15;8.77;;;3.33;;
79755;SDS011;69239;50.678;12.280;2024-01-15T14:02:43;7.47;;;3.83;;
79755;SDS011;69239;50.678;12.280;2024-01-15T14:05:09;8.15;;;3.95;;
79755;SDS011;69239;50.678;12.280;2024-01-15T14:07:37;8.07;;;3.47;;
79755;SDS011;69239;50.678;12.280;2024-01-15T14:10:04;11.57;;;5.00;;
79755;SDS011;69239;50.678;12.280;2024-01-15T14:12:30;4.78;;;2.53;;
79755;SDS011;69239;50.678;12.280;2024-01-15T14:14:56;7.88;;;3.45;;
79755;SDS011;69239;50.678;12.280;2024-01-15T14:17:21;6.20;;;3.35;;
79755;SDS011;69239;50.678;12.280;2024-01-15T14:19:46;6.90;;;3.60;;
79755;SDS011;69239;50.678;12.280;2024-01-15T14:22:12;6.82;;;3.60;;
79755;SDS011;69239;50.678;12.280;2024-01-15T14:24:37;7.82;;;3.40;;
79755;SDS011;69239;50.678;12.280;2024-01-15T14:27:03;8.35;;;4.13;;
79755;SDS011;69239;50.678;12.280;2024-01-15T14:29:30;9.38;;;4.22;;
79755;SDS011;69239;50.678;12.280;2024-01-15T14:31:55;9.10;;;4.10;;
79755;SDS011;69239;50.678;12.280;2024-01-15T14:34:21;6.90;;;3.97;;
79755;SDS011;69239;50.678;12.280;2024-01-15T14:36:48;6.90;;;4.40;;
79755;SDS011;69239;50.678;12.280;2024-01-15T14:39:14;10.57;;;4.78;;
79755;SDS011;69239;50.678;12.280;2024-01-15T14:41:40;6.72;;;3.15;;
79755;SDS011;69239;50.678;12.280;2024-01-15T14:44:05;7.85;;;4.13;;
79755;SDS011;69239;50.678;12.280;2024-01-15T14:46:31;8.77;;;3.75;;
79755;SDS011;69239;50.678;12.280;2024-01-15T14:48:56;6.93;;;3.72;;